Time;durP1;ratioP1;P1;durP2;ratioP2;P2;SDS_P1;SDS_P2;PMS_P1;PMS_P2;Temp;Humidity;BMP_temperature;BMP_pressure;BME280_temperature;BME280_humidity;BME280_pressure;Samples;Min_cycle;Max_cycle;Signal;HPM_P1;HPM_P2
2022/07/24 00:00:09;;;;;;;4.85;3.88;;;;;;;20.02;55.78;96579.25;5113410;28;20047;-69
2022/07/24 00:02:38;;;;;;;6.28;3.70;;;;;;;19.95;55.86;96575.34;5125038;28;20050;-68
2022/07/24 00:05:06;;;;;;;8.35;3.55;;;;;;;19.93;56.01;96574.63;5133800;27;20039;-69
2022/07/24 00:07:34;;;;;;;4.93;4.00;;;;;;;19.92;56.22;96575.56;5133842;27;20074;-69
2022/07/24 00:10:01;;;;;;;6.28;3.63;;;;;;;19.90;55.45;96574.88;5133938;28;20043;-69
2022/07/24 00:12:29;;;;;;;7.45;3.63;;;;;;;19.92;55.45;96572.91;5133874;27;20078;-70
2022/07/24 00:14:56;;;;;;;5.72;3.13;;;;;;;19.90;55.10;96575.69;5133729;27;20079;-70
2022/07/24 00:17:23;;;;;;;5.25;3.92;;;;;;;19.93;55.68;96575.44;5133843;28;20069;-69
2022/07/24 00:19:52;;;;;;;5.05;3.60;;;;;;;19.87;56.05;96573.25;5133791;27;20051;-68
2022/07/24 00:22:19;;;;;;;8.38;3.92;;;;;;;19.81;56.02;96571.09;5133889;27;20442;-69
2022/07/24 00:24:46;;;;;;;5.55;3.97;;;;;;;19.81;56.54;96568.44;5133790;27;20492;-70
2022/07/24 00:27:13;;;;;;;6.10;3.80;;;;;;;19.78;56.44;96576.63;5133679;28;20047;-68
2022/07/24 00:29:40;;;;;;;4.72;3.67;;;;;;;19.69;56.42;96570.22;5133537;27;20134;-68
2022/07/24 00:32:07;;;;;;;5.68;4.03;;;;;;;19.66;56.83;96571.25;5133687;27;20043;-68
2022/07/24 00:34:34;;;;;;;3.90;3.08;;;;;;;19.62;56.63;96572.47;5133744;27;20051;-69
2022/07/24 00:37:03;;;;;;;6.22;3.72;;;;;;;19.60;56.86;96563.78;5133601;27;20531;-70
2022/07/24 00:39:30;;;;;;;5.82;3.70;;;;;;;19.58;56.84;96568.34;5133695;27;20043;-68
2022/07/24 00:41:57;;;;;;;4.53;4.00;;;;;;;19.49;56.96;96569.88;5133536;28;20513;-70
2022/07/24 00:44:25;;;;;;;5.35;4.10;;;;;;;19.41;57.01;96565.13;5133526;27;20551;-68
2022/07/24 00:46:52;;;;;;;3.53;3.22;;;;;;;19.37;57.10;96565.47;5133538;28;20125;-68
2022/07/24 00:49:21;;;;;;;7.72;3.42;;;;;;;19.34;57.39;96563.91;5133531;27;20082;-68
2022/07/24 00:51:50;;;;;;;6.13;4.13;;;;;;;19.33;57.47;96567.53;5133652;27;20043;-70
2022/07/24 00:54:20;;;;;;;6.60;4.45;;;;;;;19.26;57.42;96564.44;5133466;28;20039;-69
2022/07/24 00:56:48;;;;;;;8.18;3.60;;;;;;;19.21;57.58;96563.09;5133474;27;20078;-68
2022/07/24 00:59:15;;;;;;;7.88;3.67;;;;;;;19.16;57.81;96559.00;5134858;27;20058;-68
2022/07/24 01:01:43;;;;;;;5.97;3.78;;;;;;;19.14;58.23;96555.59;5136933;27;20079;-69
2022/07/24 01:04:10;;;;;;;3.90;3.50;;;;;;;19.12;57.96;96556.66;5137286;27;20078;-69
2022/07/24 01:06:37;;;;;;;6.90;4.05;;;;;;;19.08;57.84;96556.03;5137138;27;20108;-68
2022/07/24 01:09:04;;;;;;;5.75;3.50;;;;;;;19.05;57.99;96557.06;5137009;27;20517;-70
2022/07/24 01:11:33;;;;;;;8.27;4.13;;;;;;;19.02;57.63;96557.28;5136989;27;20051;-69
2022/07/24 01:14:01;;;;;;;6.15;3.70;;;;;;;19.05;57.79;96551.78;5136932;27;20051;-69
2022/07/24 01:16:28;;;;;;;4.43;3.75;;;;;;;19.00;58.02;96545.13;5136805;27;20197;-70
2022/07/24 01:18:55;;;;;;;4.80;3.95;;;;;;;18.95;58.73;96542.81;5136942;27;20043;-68
2022/07/24 01:21:23;;;;;;;7.47;3.90;;;;;;;18.89;58.76;96541.44;5136731;27;20043;-68
2022/07/24 01:23:50;;;;;;;7.63;4.03;;;;;;;18.81;58.80;96542.00;5136726;27;20047;-70
2022/07/24 01:26:17;;;;;;;6.57;3.90;;;;;;;18.79;58.64;96541.25;5137036;27;20047;-70
2022/07/24 01:28:44;;;;;;;5.72;3.90;;;;;;;18.78;58.46;96541.38;5136707;27;20057;-70
2022/07/24 01:31:11;;;;;;;7.38;3.05;;;;;;;18.73;59.02;96536.41;5136743;27;20051;-68
2022/07/24 01:33:38;;;;;;;6.93;4.07;;;;;;;18.69;59.39;96530.47;5136531;27;20051;-69
2022/07/24 01:36:06;;;;;;;7.20;3.75;;;;;;;18.66;59.51;96529.84;5136433;27;20055;-70
2022/07/24 01:38:35;;;;;;;10.48;3.70;;;;;;;18.54;59.88;96537.69;5136373;27;20089;-70
2022/07/24 01:41:02;;;;;;;5.25;3.90;;;;;;;18.48;59.68;96535.47;5136373;27;20410;-70
2022/07/24 01:43:29;;;;;;;10.02;4.03;;;;;;;18.42;59.97;96531.47;5136437;27;20070;-69
2022/07/24 01:45:56;;;;;;;4.75;3.63;;;;;;;18.38;59.98;96523.84;5136279;27;20043;-68
2022/07/24 01:48:23;;;;;;;5.85;3.85;;;;;;;18.36;59.82;96528.41;5136211;27;20043;-68
2022/07/24 01:50:50;;;;;;;5.72;4.03;;;;;;;18.30;59.89;96532.31;5136126;27;20550;-69
2022/07/24 01:53:17;;;;;;;10.15;3.88;;;;;;;18.25;60.06;96529.16;5136172;27;20039;-69
2022/07/24 01:55:46;;;;;;;4.68;3.90;;;;;;;18.14;60.37;96525.44;5136008;27;20054;-70
2022/07/24 01:58:13;;;;;;;5.07;3.72;;;;;;;18.14;60.66;96519.28;5136128;27;20065;-70
2022/07/24 02:00:40;;;;;;;8.68;4.35;;;;;;;18.13;60.36;96522.91;5136063;27;20047;-68
2022/07/24 02:03:07;;;;;;;4.88;3.80;;;;;;;18.10;60.60;96517.78;5135761;27;20470;-68
2022/07/24 02:05:34;;;;;;;7.32;4.10;;;;;;;18.11;60.73;96530.09;5136007;27;20047;-69
2022/07/24 02:08:01;;;;;;;7.25;4.38;;;;;;;18.06;60.62;96523.28;5135794;27;20043;-69
2022/07/24 02:10:29;;;;;;;5.75;3.30;;;;;;;18.08;60.94;96519.69;5135873;27;20078;-69
2022/07/24 02:12:58;;;;;;;5.25;3.83;;;;;;;18.07;61.00;96524.16;5135815;27;20086;-69
2022/07/24 02:15:25;;;;;;;9.38;3.63;;;;;;;18.09;61.06;96527.53;5135719;27;20043;-70
2022/07/24 02:17:56;;;;;;;10.48;3.67;;;;;;;18.06;60.99;96519.78;5135667;27;20075;-70
2022/07/24 02:20:24;;;;;;;5.60;3.85;;;;;;;18.04;61.00;96522.56;5135613;27;20507;-70
2022/07/24 02:22:51;;;;;;;5.07;4.07;;;;;;;18.03;61.35;96525.31;5135510;27;20488;-68
2022/07/24 02:25:18;;;;;;;11.18;3.90;;;;;;;18.00;61.24;96513.13;5135503;27;20047;-69
2022/07/24 02:27:45;;;;;;;8.77;4.13;;;;;;;17.98;61.49;96522.97;5135556;27;20075;-69
2022/07/24 02:30:17;;;;;;;8.32;3.53;;;;;;;17.96;61.61;96518.72;5135496;27;20052;-69
2022/07/24 02:32:45;;;;;;;4.13;3.38;;;;;;;17.87;61.81;96521.06;5135457;27;20058;-68
2022/07/24 02:35:12;;;;;;;6.38;3.78;;;;;;;17.85;61.75;96522.13;5135407;27;20086;-71
2022/07/24 02:37:41;;;;;;;4.75;3.83;;;;;;;17.80;62.19;96519.78;5135147;27;20480;-71
2022/07/24 02:40:11;;;;;;;5.47;4.10;;;;;;;17.79;62.26;96523.41;5135182;27;20043;-69
2022/07/24 02:42:39;;;;;;;5.97;3.58;;;;;;;17.76;62.28;96513.03;5135280;27;20043;-70
2022/07/24 02:45:07;;;;;;;4.97;3.80;;;;;;;17.66;62.39;96521.56;5135177;27;20538;-69
2022/07/24 02:47:37;;;;;;;7.03;3.83;;;;;;;17.64;62.66;96514.69;5135182;27;20077;-71
2022/07/24 02:50:05;;;;;;;4.97;3.63;;;;;;;17.56;62.59;96517.84;5135030;27;20039;-68
2022/07/24 02:52:32;;;;;;;5.03;3.50;;;;;;;17.60;62.65;96519.34;5134991;27;20047;-71
2022/07/24 02:54:59;;;;;;;5.28;4.20;;;;;;;17.60;63.18;96518.47;5134909;27;20108;-70
2022/07/24 02:57:26;;;;;;;6.20;3.83;;;;;;;17.54;63.43;96511.81;5134917;27;20045;-71
2022/07/24 02:59:53;;;;;;;5.68;4.03;;;;;;;17.49;63.61;96512.09;5134824;27;20092;-68
2022/07/24 03:02:20;;;;;;;6.68;4.22;;;;;;;17.48;63.38;96518.34;5134663;27;20065;-68
2022/07/24 03:04:48;;;;;;;7.07;4.15;;;;;;;17.47;63.36;96516.66;5134897;27;20047;-70
2022/07/24 03:07:16;;;;;;;6.55;4.10;;;;;;;17.41;63.58;96512.63;5134922;27;20043;-71
2022/07/24 03:09:43;;;;;;;5.53;4.22;;;;;;;17.49;63.69;96516.56;5134782;27;20130;-68
2022/07/24 03:12:10;;;;;;;5.47;4.30;;;;;;;17.46;63.38;96514.94;5134727;27;20491;-69
2022/07/24 03:14:38;;;;;;;6.65;3.83;;;;;;;17.48;63.65;96510.41;5134785;27;20039;-70
2022/07/24 03:17:05;;;;;;;6.90;4.43;;;;;;;17.46;63.77;96517.59;5134653;27;20051;-68
2022/07/24 03:19:33;;;;;;;6.00;3.78;;;;;;;17.44;63.80;96511.56;5134636;27;20096;-70
2022/07/24 03:22:01;;;;;;;10.45;3.92;;;;;;;17.40;63.63;96510.09;5134067;27;20047;-71
2022/07/24 03:24:28;;;;;;;4.97;4.28;;;;;;;17.43;63.79;96508.06;5134540;27;20057;-68
2022/07/24 03:26:55;;;;;;;5.82;4.35;;;;;;;17.49;63.88;96512.09;5134445;27;20449;-70
2022/07/24 03:29:23;;;;;;;6.55;3.78;;;;;;;17.52;63.79;96505.78;5134466;27;20488;-71
2022/07/24 03:31:50;;;;;;;4.80;3.80;;;;;;;17.50;63.86;96505.88;5134375;27;20047;-71
2022/07/24 03:34:17;;;;;;;5.25;4.47;;;;;;;17.51;63.86;96504.06;5134380;27;20043;-70
2022/07/24 03:36:44;;;;;;;8.13;3.97;;;;;;;17.55;63.93;96509.06;5134154;27;20090;-68
2022/07/24 03:39:13;;;;;;;5.18;3.92;;;;;;;17.59;64.03;96509.72;5134191;27;20057;-69
2022/07/24 03:41:40;;;;;;;5.30;3.80;;;;;;;17.65;64.06;96511.94;5134325;27;20039;-69
2022/07/24 03:44:07;;;;;;;6.40;4.05;;;;;;;17.74;63.97;96501.69;5134241;27;20047;-71
2022/07/24 03:46:34;;;;;;;9.23;4.25;;;;;;;17.79;63.75;96504.88;5134210;27;20043;-69
2022/07/24 03:49:02;;;;;;;7.75;3.85;;;;;;;17.82;63.63;96491.41;5134259;27;20055;-69
2022/07/24 03:51:29;;;;;;;4.80;3.88;;;;;;;17.97;63.62;96504.56;5134137;27;20043;-68
2022/07/24 03:53:56;;;;;;;8.40;3.90;;;;;;;18.10;63.56;96502.81;5134072;27;20044;-71
2022/07/24 03:56:24;;;;;;;5.22;3.97;;;;;;;18.39;62.59;96504.38;5134286;28;20080;-68
2022/07/24 03:58:51;;;;;;;10.68;3.70;;;;;;;18.70;61.99;96510.13;5134034;27;20116;-70
2022/07/24 04:01:19;;;;;;;9.45;3.67;;;;;;;19.07;61.23;96503.94;5133736;28;20047;-69
2022/07/24 04:03:46;;;;;;;6.30;3.97;;;;;;;19.42;60.04;96510.31;5134112;28;20048;-69
2022/07/24 04:06:13;;;;;;;6.45;3.60;;;;;;;19.83;59.26;96508.13;5134155;27;20523;-69
2022/07/24 04:08:40;;;;;;;5.72;3.97;;;;;;;20.22;57.94;96507.84;5134038;28;20051;-71
2022/07/24 04:11:08;;;;;;;7.30;3.70;;;;;;;20.61;57.40;96504.81;5133863;27;20496;-71
2022/07/24 04:13:36;;;;;;;4.35;3.67;;;;;;;21.02;55.95;96502.50;5134035;28;20481;-70
2022/07/24 04:16:04;;;;;;;6.03;3.75;;;;;;;21.36;55.23;96498.03;5133897;27;20048;-71
2022/07/24 04:18:31;;;;;;;5.13;3.20;;;;;;;21.69;54.72;96506.81;5133860;27;20096;-69
2022/07/24 04:20:58;;;;;;;6.35;3.35;;;;;;;22.08;53.35;96500.94;5133907;27;20050;-69
2022/07/24 04:23:25;;;;;;;9.13;3.63;;;;;;;22.33;53.00;96501.47;5134023;27;20043;-70
2022/07/24 04:25:52;;;;;;;4.03;3.55;;;;;;;22.62;52.14;96499.94;5133996;28;20404;-71
2022/07/24 04:28:20;;;;;;;4.30;3.63;;;;;;;22.93;51.99;96507.88;5133926;28;20040;-71
2022/07/24 04:30:48;;;;;;;7.50;3.53;;;;;;;23.21;51.31;96516.91;5133871;28;20856;-70
2022/07/24 04:33:15;;;;;;;8.32;3.70;;;;;;;23.51;50.75;96510.78;5133776;27;20043;-69
2022/07/24 04:35:43;;;;;;;5.05;3.35;;;;;;;23.76;50.43;96516.53;5137608;27;20051;-70
2022/07/24 04:38:10;;;;;;;4.18;3.58;;;;;;;24.06;50.03;96514.66;5137678;27;20050;-70
2022/07/24 04:40:37;;;;;;;4.20;3.53;;;;;;;24.33;49.95;96511.25;5137614;27;20039;-71
2022/07/24 04:43:04;;;;;;;4.25;3.50;;;;;;;24.69;49.11;96513.22;5137697;27;20061;-70
2022/07/24 04:45:32;;;;;;;6.72;3.53;;;;;;;24.96;48.42;96508.03;5137707;27;20100;-70
2022/07/24 04:48:01;;;;;;;5.85;3.47;;;;;;;25.29;47.88;96511.06;5137591;27;20075;-70
2022/07/24 04:50:28;;;;;;;5.80;3.50;;;;;;;25.66;47.39;96508.38;5137597;27;20115;-71
2022/07/24 04:52:55;;;;;;;7.82;3.30;;;;;;;25.93;46.63;96509.25;5137423;27;20050;-71
2022/07/24 04:55:23;;;;;;;11.88;3.95;;;;;;;26.15;45.51;96509.78;5137524;27;20089;-70
2022/07/24 04:57:50;;;;;;;5.80;3.42;;;;;;;26.40;45.98;96516.16;5137262;27;20108;-70
2022/07/24 05:00:18;;;;;;;9.77;3.50;;;;;;;26.77;45.70;96521.31;5137264;27;20051;-71
2022/07/24 05:02:45;;;;;;;7.18;3.60;;;;;;;27.08;46.43;96520.78;5136959;27;20051;-70
2022/07/24 05:05:13;;;;;;;8.07;3.55;;;;;;;27.45;44.67;96524.06;5137273;27;20039;-70
2022/07/24 05:07:41;;;;;;;11.00;3.30;;;;;;;27.74;44.75;96523.63;5137252;27;20051;-70
2022/07/24 05:10:09;;;;;;;6.65;3.72;;;;;;;28.07;44.27;96525.44;5137106;27;20047;-70
2022/07/24 05:12:36;;;;;;;7.80;3.80;;;;;;;28.37;43.27;96530.28;5137067;27;20043;-70
2022/07/24 05:15:05;;;;;;;4.90;3.33;;;;;;;28.68;43.06;96528.69;5137016;27;20049;-70
2022/07/24 05:17:32;;;;;;;8.27;3.38;;;;;;;28.93;41.33;96528.59;5136767;27;20043;-70
2022/07/24 05:20:00;;;;;;;9.13;3.28;;;;;;;29.15;41.39;96521.63;5137005;27;20043;-70
2022/07/24 05:22:29;;;;;;;6.85;3.55;;;;;;;29.40;39.66;96513.38;5136928;27;20051;-70
2022/07/24 05:24:56;;;;;;;4.80;3.45;;;;;;;29.61;36.94;96515.44;5136899;27;20485;-70
2022/07/24 05:27:24;;;;;;;7.45;3.90;;;;;;;29.82;37.72;96503.16;5136683;27;20080;-70
2022/07/24 05:29:51;;;;;;;9.48;3.90;;;;;;;30.00;35.62;96501.97;5136759;27;20061;-70
2022/07/24 05:32:18;;;;;;;6.03;3.30;;;;;;;30.24;35.89;96503.63;5136675;27;20043;-70
2022/07/24 05:34:46;;;;;;;9.13;3.85;;;;;;;30.55;34.18;96498.25;5136488;27;20138;-70
2022/07/24 05:37:13;;;;;;;7.28;3.80;;;;;;;30.85;33.04;96500.97;5136399;27;20047;-70
2022/07/24 05:39:41;;;;;;;8.80;3.05;;;;;;;31.11;34.85;96494.19;5136614;27;20104;-70
2022/07/24 05:42:09;;;;;;;6.25;3.50;;;;;;;31.39;33.18;96504.28;5136396;27;20043;-69
2022/07/24 05:44:37;;;;;;;4.47;3.28;;;;;;;31.66;35.01;96507.22;5135960;27;20133;-69
2022/07/24 05:47:04;;;;;;;10.07;3.20;;;;;;;31.93;33.80;96498.56;5136519;27;20039;-69
2022/07/24 05:49:32;;;;;;;3.67;3.03;;;;;;;32.14;33.73;96492.25;5136478;27;20071;-70
2022/07/24 05:51:59;;;;;;;3.72;3.33;;;;;;;32.33;32.53;96501.56;5136312;27;20104;-70
2022/07/24 05:54:27;;;;;;;4.80;3.47;;;;;;;32.55;34.60;96497.94;5136249;27;20104;-70
2022/07/24 05:56:56;;;;;;;10.98;3.78;;;;;;;32.85;34.48;96489.56;5136068;27;20396;-70
2022/07/24 05:59:23;;;;;;;7.78;3.83;;;;;;;33.11;33.24;96488.03;5136136;27;20039;-69
2022/07/24 06:01:50;;;;;;;6.00;3.88;;;;;;;33.32;32.55;96488.91;5135899;27;20385;-69
2022/07/24 06:04:18;;;;;;;9.68;3.90;;;;;;;33.53;31.88;96485.19;5136016;27;20051;-70
2022/07/24 06:06:46;;;;;;;8.73;3.83;;;;;;;33.82;31.72;96485.03;5135979;27;20062;-70
2022/07/24 06:09:13;;;;;;;7.20;3.38;;;;;;;34.08;29.96;96473.34;5135929;27;20043;-70
2022/07/24 06:11:40;;;;;;;10.18;4.15;;;;;;;34.27;29.58;96473.53;5135973;27;20096;-69
2022/07/24 06:14:09;;;;;;;9.40;4.35;;;;;;;34.46;29.68;96482.69;5135889;27;20416;-70
2022/07/24 06:16:37;;;;;;;8.77;4.53;;;;;;;34.66;28.96;96476.38;5135834;27;20480;-69
2022/07/24 06:19:04;;;;;;;9.57;4.38;;;;;;;34.78;29.07;96479.25;5135798;27;20477;-70
2022/07/24 06:21:31;;;;;;;8.68;5.57;;;;;;;35.06;28.62;96475.38;5135586;27;20043;-69
2022/07/24 06:23:59;;;;;;;12.52;6.72;;;;;;;35.28;28.50;96475.91;5135707;27;20236;-69
2022/07/24 06:26:26;;;;;;;14.50;11.13;;;;;;;35.48;26.79;96466.78;5135657;27;20433;-69
2022/07/24 06:28:54;;;;;;;19.35;12.85;;;;;;;35.65;26.21;96471.69;5135562;27;20049;-69
2022/07/24 06:31:24;;;;;;;22.60;15.55;;;;;;;35.87;25.43;96468.59;5135555;27;20057;-69
2022/07/24 06:33:51;;;;;;;25.80;18.20;;;;;;;36.02;24.91;96466.38;5135652;27;20054;-69
2022/07/24 06:36:18;;;;;;;28.20;22.70;;;;;;;36.14;25.10;96462.91;5135338;27;20043;-69
2022/07/24 06:38:46;;;;;;;23.80;20.90;;;;;;;36.18;23.94;96466.88;5135270;27;20530;-69
2022/07/24 06:41:13;;;;;;;27.17;21.73;;;;;;;36.15;24.65;96464.59;5135353;27;20043;-69
2022/07/24 06:43:40;;;;;;;28.77;22.92;;;;;;;36.25;23.38;96464.94;5135191;27;20051;-69
2022/07/24 06:46:08;;;;;;;27.77;24.45;;;;;;;35.91;24.23;96464.41;5135420;27;20496;-70
2022/07/24 06:48:38;;;;;;;25.40;22.13;;;;;;;36.18;25.65;96469.59;5135232;27;20489;-70
2022/07/24 06:51:05;;;;;;;28.30;20.97;;;;;;;36.10;25.53;96461.72;5135028;27;20047;-69
2022/07/24 06:53:33;;;;;;;27.30;20.85;;;;;;;36.15;25.09;96457.25;5135006;27;20046;-69
2022/07/24 06:56:01;;;;;;;20.65;18.45;;;;;;;36.07;24.75;96459.44;5134698;27;20043;-69
2022/07/24 06:58:29;;;;;;;24.52;18.48;;;;;;;36.37;24.60;96466.91;5134504;27;20170;-69
2022/07/24 07:00:56;;;;;;;22.30;16.17;;;;;;;36.50;24.51;96464.03;5134188;27;20122;-69
2022/07/24 07:03:23;;;;;;;18.27;15.77;;;;;;;36.72;24.11;96460.88;5134689;27;20043;-69
2022/07/24 07:05:52;;;;;;;19.67;15.10;;;;;;;36.50;23.73;96455.88;5134790;27;20450;-69
2022/07/24 07:08:19;;;;;;;17.55;15.73;;;;;;;36.42;23.91;96459.72;5134705;27;20099;-69
2022/07/24 07:10:47;;;;;;;21.65;15.38;;;;;;;36.70;24.74;96454.00;5134675;27;20047;-69
2022/07/24 07:13:14;;;;;;;18.15;15.70;;;;;;;36.72;24.13;96457.34;5134558;27;20078;-69
2022/07/24 07:15:42;;;;;;;21.42;14.75;;;;;;;36.85;23.93;96451.72;5134642;27;20059;-69
2022/07/24 07:18:13;;;;;;;23.45;16.90;;;;;;;37.14;22.52;96449.22;5134679;27;20051;-69
2022/07/24 07:20:40;;;;;;;19.98;16.05;;;;;;;37.36;23.02;96446.03;5134657;27;20047;-69
2022/07/24 07:23:10;;;;;;;24.58;17.52;;;;;;;37.50;22.69;96441.19;5134604;27;20043;-70
2022/07/24 07:25:37;;;;;;;15.55;13.90;;;;;;;37.48;23.17;96445.22;5134383;27;20078;-69
2022/07/24 07:28:05;;;;;;;21.67;16.63;;;;;;;37.27;23.23;96441.97;5134548;27;20063;-69
2022/07/24 07:30:33;;;;;;;23.17;15.10;;;;;;;37.51;23.41;96434.69;5134437;27;20480;-68
2022/07/24 07:33:00;;;;;;;19.00;16.33;;;;;;;37.64;23.30;96441.81;5134293;27;20043;-67
2022/07/24 07:35:27;;;;;;;19.23;15.15;;;;;;;37.41;23.08;96431.69;5134376;27;20039;-69
2022/07/24 07:37:55;;;;;;;18.85;13.88;;;;;;;37.51;22.88;96428.38;5134300;27;20047;-69
2022/07/24 07:40:25;;;;;;;21.63;14.43;;;;;;;37.73;22.24;96436.03;5134198;27;20527;-69
2022/07/24 07:42:52;;;;;;;;;;;;;;;37.99;21.70;96431.19;5134673;27;20051;-69
2022/07/24 07:45:19;;;;;;;22.67;13.80;;;;;;;38.17;22.63;96425.59;5134110;27;19926;-69
2022/07/24 07:47:47;;;;;;;20.42;15.20;;;;;;;38.11;20.67;96425.72;5134073;27;20043;-69
2022/07/24 07:50:15;;;;;;;19.08;14.43;;;;;;;37.76;22.60;96430.94;5134338;27;20046;-69
2022/07/24 07:52:43;;;;;;;19.92;15.70;;;;;;;37.65;21.25;96426.28;5134177;27;20101;-69
2022/07/24 07:55:11;;;;;;;18.52;15.88;;;;;;;37.73;21.87;96428.69;5134231;28;20085;-68
2022/07/24 07:57:41;;;;;;;16.92;14.77;;;;;;;37.92;21.30;96431.31;5134117;27;20058;-69
2022/07/24 08:00:10;;;;;;;19.38;15.02;;;;;;;38.30;20.95;96421.81;5134084;28;20409;-68
2022/07/24 08:02:37;;;;;;;25.65;14.40;;;;;;;38.46;21.56;96418.59;5133837;27;20053;-69
2022/07/24 08:05:09;;;;;;;19.30;14.07;;;;;;;38.60;21.08;96421.84;5133923;27;20046;-69
2022/07/24 08:07:36;;;;;;;20.92;13.32;;;;;;;38.75;20.98;96426.81;5134158;27;20051;-68
2022/07/24 08:10:06;;;;;;;15.63;12.80;;;;;;;38.88;20.14;96428.47;5137535;27;20092;-68
2022/07/24 08:12:34;;;;;;;19.08;12.82;;;;;;;39.01;20.92;96425.44;5138137;27;20121;-68
2022/07/24 08:15:03;;;;;;;20.27;11.45;;;;;;;39.00;20.59;96426.50;5138063;27;20527;-69
2022/07/24 08:17:31;;;;;;;14.70;10.17;;;;;;;38.82;21.07;96419.31;5138011;27;20075;-68
2022/07/24 08:19:59;;;;;;;16.73;10.05;;;;;;;38.74;20.60;96417.81;5138043;27;20051;-68
2022/07/24 08:22:26;;;;;;;12.90;10.10;;;;;;;38.71;21.83;96421.03;5137906;27;20051;-68
2022/07/24 08:24:54;;;;;;;17.00;10.02;;;;;;;38.75;22.44;96422.19;5137716;27;20221;-68
2022/07/24 08:27:21;;;;;;;13.52;9.93;;;;;;;38.80;21.25;96419.56;5138044;27;20043;-66
2022/07/24 08:29:49;;;;;;;17.58;10.48;;;;;;;38.70;20.58;96419.34;5137864;27;20047;-66
2022/07/24 08:32:18;;;;;;;16.30;10.15;;;;;;;38.70;21.58;96421.28;5137872;27;20454;-66
2022/07/24 08:34:46;;;;;;;15.18;10.45;;;;;;;38.67;20.85;96417.94;5137552;27;20575;-65
2022/07/24 08:37:13;;;;;;;21.45;10.13;;;;;;;38.85;20.77;96423.47;5137204;27;20085;-66
2022/07/24 08:39:41;;;;;;;12.18;9.38;;;;;;;38.70;21.56;96418.53;5137618;27;20054;-66
2022/07/24 08:42:09;;;;;;;11.88;9.50;;;;;;;38.57;19.92;96414.97;5137653;27;20047;-65
2022/07/24 08:44:36;;;;;;;10.82;9.27;;;;;;;38.15;20.96;96408.66;5137267;27;20043;-65
2022/07/24 08:47:06;;;;;;;12.05;9.00;;;;;;;38.27;21.79;96405.06;5137556;27;20127;-66
2022/07/24 08:49:36;;;;;;;13.00;8.13;;;;;;;38.45;21.36;96403.25;5137175;27;20058;-66
2022/07/24 08:52:08;;;;;;;12.13;8.10;;;;;;;38.36;21.19;96403.63;5137484;27;20412;-65
2022/07/24 08:54:35;;;;;;;12.27;8.23;;;;;;;38.06;21.61;96393.69;5137415;27;20147;-66
2022/07/24 08:57:03;;;;;;;10.55;8.68;;;;;;;38.02;22.30;96390.63;5137369;27;20441;-65
2022/07/24 08:59:31;;;;;;;13.82;8.40;;;;;;;38.20;21.60;96388.84;5137218;27;20469;-66
2022/07/24 09:01:58;;;;;;;15.30;8.43;;;;;;;37.89;22.51;96394.41;5136886;27;20043;-66
2022/07/24 09:04:39;;;;;;;10.95;8.57;;;;;;;37.85;22.46;96384.19;5137158;27;20043;-66
2022/07/24 09:07:08;;;;;;;16.55;9.10;;;;;;;37.52;22.69;96387.25;5137004;27;20547;-66
2022/07/24 09:09:38;;;;;;;55.30;48.55;;;;;;;37.79;23.16;96378.63;5137071;27;20047;-65
2022/07/24 09:12:08;;;;;;;19.02;10.98;;;;;;;37.98;22.36;96383.94;5136995;27;20047;-66
2022/07/24 09:14:36;;;;;;;12.15;9.60;;;;;;;38.20;22.68;96377.09;5137099;27;20541;-65
2022/07/24 09:17:06;;;;;;;26.92;21.58;;;;;;;38.39;22.38;96384.03;5137063;27;20134;-67
2022/07/24 09:19:49;;;;;;;19.42;10.45;;;;;;;38.54;22.13;96382.69;5135776;27;20047;-66
2022/07/24 09:22:27;;;;;;;19.00;17.05;;;;;;;38.72;22.02;96381.72;5136212;27;20082;-66
2022/07/24 09:25:15;;;;;;;24.17;21.58;;;;;;;38.69;22.07;96382.19;5133777;27;20047;-67
2022/07/24 09:27:47;;;;;;;15.95;10.73;;;;;;;38.58;21.09;96380.31;5136272;27;20043;-68
2022/07/24 09:30:28;;;;;;;11.73;10.27;;;;;;;38.65;21.34;96378.28;5136154;27;20442;-67
2022/07/24 09:32:57;;;;;;;13.75;10.73;;;;;;;38.80;22.20;96377.75;5135051;27;20138;-66
2022/07/24 09:35:31;;;;;;;17.20;11.07;;;;;;;38.90;21.62;96371.66;5133515;27;20103;-66
2022/07/24 09:37:59;;;;;;;34.00;28.98;;;;;;;38.90;21.62;96382.56;5136335;27;20047;-66
2022/07/24 09:40:31;;;;;;;13.32;11.02;;;;;;;38.68;21.20;96383.28;5136481;27;20397;-66
2022/07/24 09:43:14;;;;;;;23.60;14.07;;;;;;;38.64;21.60;96365.72;5136495;27;20047;-66
2022/07/24 09:46:05;;;;;;;21.48;12.25;;;;;;;38.55;21.53;96373.41;5136380;27;20052;-66
2022/07/24 09:48:34;;;;;;;18.88;10.65;;;;;;;38.67;22.51;96376.13;5129603;27;20055;-66
2022/07/24 09:51:06;;;;;;;13.18;11.30;;;;;;;38.62;22.04;96367.81;5135664;27;20087;-66
2022/07/24 09:53:36;;;;;;;14.75;10.85;;;;;;;38.52;21.22;96368.47;5135651;27;20069;-65
2022/07/24 09:56:09;;;;;;;13.30;11.18;;;;;;;38.21;22.23;96357.72;5135599;27;20138;-65
2022/07/24 09:58:38;;;;;;;13.75;10.68;;;;;;;38.11;22.25;96363.78;5135376;27;20095;-64
2022/07/24 10:01:08;;;;;;;17.25;10.27;;;;;;;38.14;21.99;96351.56;5133012;27;20123;-66
2022/07/24 10:03:39;;;;;;;19.00;10.55;;;;;;;38.21;22.60;96351.44;5135380;27;20057;-66
2022/07/24 10:06:11;;;;;;;16.73;10.55;;;;;;;38.30;22.49;96350.00;5133153;27;20130;-66
2022/07/24 10:08:42;;;;;;;17.10;10.82;;;;;;;38.26;22.23;96340.63;5135683;27;20092;-66
2022/07/24 10:11:11;;;;;;;35.42;25.85;;;;;;;38.28;22.26;96335.78;5135896;27;20043;-65
2022/07/24 10:13:39;;;;;;;24.95;20.38;;;;;;;38.26;22.59;96335.19;5135936;27;20079;-65
2022/07/24 10:16:29;;;;;;;24.15;17.58;;;;;;;38.49;21.71;96336.19;5135670;27;20053;-66
2022/07/24 10:18:58;;;;;;;24.55;10.60;;;;;;;38.57;21.76;96332.22;5129352;27;20047;-66
2022/07/24 10:21:30;;;;;;;12.68;10.95;;;;;;;38.75;22.38;96333.94;5135823;27;20043;-64
2022/07/24 10:24:18;;;;;;;13.52;10.30;;;;;;;38.84;21.03;96328.91;5135682;27;20043;-66
2022/07/24 10:26:48;;;;;;;13.52;11.15;;;;;;;38.90;21.60;96328.78;5135454;27;20046;-65
2022/07/24 10:29:20;;;;;;;24.20;11.63;;;;;;;38.90;21.32;96334.25;5135548;27;20043;-64
2022/07/24 10:31:49;;;;;;;16.95;10.48;;;;;;;39.08;21.36;96332.34;5134454;27;20116;-65
2022/07/24 10:34:26;;;;;;;14.15;10.02;;;;;;;39.05;20.81;96324.63;5135443;27;20104;-64
2022/07/24 10:37:06;;;;;;;14.38;10.50;;;;;;;38.73;22.58;96323.25;5135401;27;20047;-66
2022/07/24 10:39:40;;;;;;;13.13;10.38;;;;;;;38.84;21.53;96323.44;5135205;27;20051;-66
2022/07/24 10:42:09;;;;;;;18.50;9.75;;;;;;;38.85;21.83;96309.53;5135240;27;20043;-66
2022/07/24 10:44:37;;;;;;;16.40;10.15;;;;;;;38.90;21.77;96306.91;5135088;27;20043;-66
2022/07/24 10:47:13;;;;;;;12.65;10.30;;;;;;;38.83;21.78;96305.41;5135194;27;20047;-64
2022/07/24 10:49:45;;;;;;;19.77;10.02;;;;;;;38.61;21.58;96295.16;5135161;27;20043;-66
2022/07/24 10:52:25;;;;;;;17.73;10.60;;;;;;;38.35;21.46;96295.50;5134970;27;20057;-64
2022/07/24 10:55:22;;;;;;;12.88;9.38;;;;;;;38.10;22.07;96287.63;5134998;27;20103;-64
2022/07/24 10:57:54;;;;;;;16.33;9.10;;;;;;;38.01;22.43;96287.97;5134788;27;20124;-65
2022/07/24 11:00:28;;;;;;;18.42;8.55;;;;;;;38.03;21.37;96282.28;5134852;27;20046;-66
2022/07/24 11:03:03;;;;;;;16.65;9.07;;;;;;;38.09;22.74;96280.47;5134518;27;20460;-65
2022/07/24 11:05:34;;;;;;;14.50;9.18;;;;;;;38.19;22.45;96282.63;5134876;27;20047;-64
2022/07/24 11:08:39;;;;;;;11.48;8.45;;;;;;;38.27;21.50;96284.97;5134819;27;20552;-65
2022/07/24 11:11:13;;;;;;;10.63;8.43;;;;;;;38.20;23.10;96270.63;5134666;27;20047;-65
2022/07/24 11:13:51;;;;;;;15.07;8.68;;;;;;;38.17;22.52;96269.22;5134594;27;20051;-64
2022/07/24 11:16:29;;;;;;;12.38;8.00;;;;;;;38.36;21.91;96255.38;5134490;27;20046;-64
2022/07/24 11:19:31;;;;;;;14.57;8.80;;;;;;;37.97;21.03;96264.13;5134399;27;20087;-65
2022/07/24 11:22:19;;;;;;;13.25;7.90;;;;;;;37.43;22.95;96263.25;5116563;27;20130;-65
2022/07/24 11:25:14;;;;;;;19.73;7.88;;;;;;;37.21;22.80;96258.41;5134429;27;20381;-64
2022/07/24 11:27:50;;;;;;;11.60;7.53;;;;;;;36.94;25.31;96257.97;5134488;27;20081;-64
2022/07/24 11:30:20;;;;;;;12.30;6.50;;;;;;;36.70;25.07;96255.22;5134539;27;20484;-66
2022/07/24 11:32:48;;;;;;;12.80;6.95;;;;;;;36.64;23.89;96255.06;5134366;27;20100;-64
2022/07/24 11:35:18;;;;;;;7.95;7.10;;;;;;;36.79;26.31;96257.38;5134229;27;20127;-65